Time;durP1;ratioP1;P1;durP2;ratioP2;P2;SDS_P1;SDS_P2;PMS_P1;PMS_P2;Temp;Humidity;BMP_temperature;BMP_pressure;BME280_temperature;BME280_humidity;BME280_pressure;Samples;Min_cycle;Max_cycle;Signal;HPM_P1;HPM_P2
2022/09/05 00:01:04;;;;;;;;;;;18.60;73.30;;;17.94;67.38;96934.63;4261427;33;19902;-82
2022/09/05 00:03:36;;;;;;;;;;;18.60;73.20;;;17.94;67.36;96929.06;4263110;33;19902;-82
2022/09/05 00:06:07;;;;;;;;;;;18.60;73.10;;;17.93;67.39;96919.97;4263068;33;20011;-82
2022/09/05 00:08:53;;;;;;;;;;;18.60;73.10;;;17.93;67.49;96917.19;4262991;33;19909;-82
2022/09/05 00:11:26;;;;;;;;;;;18.60;73.20;;;17.92;67.49;96923.84;4252892;33;19920;-82
2022/09/05 00:14:11;;;;;;;;;;;18.60;73.20;;;17.93;67.27;96921.88;4291805;33;19910;-82
2022/09/05 00:16:54;;;;;;;;;;;18.60;73.20;;;17.93;67.30;96930.19;4267679;33;19910;-82
2022/09/05 00:19:28;;;;;;;;;;;18.60;73.10;;;17.93;67.67;96938.50;4292366;33;20263;-82
2022/09/05 00:22:08;;;;;;;;;;;18.60;74.10;;;17.93;67.66;96944.03;4292304;33;19909;-82
2022/09/05 00:24:47;;;;;;;;;;;18.60;73.30;;;17.92;67.54;96942.41;4291799;33;19901;-81
2022/09/05 00:27:19;;;;;;;;;;;18.60;73.30;;;17.92;67.50;96934.09;4286865;33;20085;-82
2022/09/05 00:30:03;;;;;;;;;;;18.60;73.30;;;17.91;67.44;96935.22;4238935;33;20053;-82
2022/09/05 00:32:45;;;;;;;;;;;18.60;73.30;;;17.90;67.31;96928.84;4238382;33;19983;-82
2022/09/05 00:35:31;;;;;;;;;;;18.60;73.20;;;17.90;67.38;96928.84;4238949;33;20106;-82
2022/09/05 00:38:00;;;;;;;;;;;18.60;73.20;;;17.90;67.43;96933.56;4238832;33;19909;-82
2022/09/05 00:40:30;;;;;;;;;;;18.60;73.20;;;17.89;67.43;96938.28;4261513;33;19902;-82
2022/09/05 00:43:01;;;;;;;;;;;18.60;73.20;;;17.90;67.34;96937.16;4262068;33;20033;-82
2022/09/05 00:45:35;;;;;;;;;;;18.60;73.20;;;17.91;67.16;96935.22;4238685;33;19962;-82
2022/09/05 00:48:16;;;;;;;;;;;18.60;73.20;;;17.89;67.58;96937.44;4238636;33;19989;-82
2022/09/05 00:51:01;;;;;;;;;;;18.60;73.20;;;17.89;67.67;96943.81;4262229;33;20072;-82
2022/09/05 00:53:42;;;;;;;;;;;18.60;73.30;;;17.89;67.66;96934.69;4238585;33;19902;-82
2022/09/05 00:56:23;;;;;;;;;;;18.60;73.40;;;17.88;67.35;96931.09;4265234;33;19936;-82
2022/09/05 00:59:00;;;;;;;;;;;18.60;73.40;;;17.89;67.55;96935.53;4292319;33;20253;-82
2022/09/05 01:01:33;;;;;;;;;;;18.60;73.30;;;17.88;67.56;96930.28;4290750;33;19901;-82
2022/09/05 01:04:23;;;;;;;;;;;18.60;73.20;;;17.88;67.21;96938.59;4267166;33;20287;-82
2022/09/05 01:07:07;;;;;;;;;;;18.60;73.30;;;17.89;67.43;96931.91;4291211;33;20073;-82
2022/09/05 01:09:45;;;;;;;;;;;18.60;73.20;;;17.89;67.43;96932.75;4291077;33;20127;-82
2022/09/05 01:12:34;;;;;;;;;;;18.60;73.40;;;17.87;67.66;96929.44;4266518;33;20091;-82
2022/09/05 01:15:19;;;;;;;;;;;18.60;73.40;;;17.86;67.37;96925.03;4267064;33;20092;-82
2022/09/05 01:18:21;;;;;;;;;;;18.60;73.30;;;17.87;67.53;96934.19;4266959;33;20040;-82
2022/09/05 01:21:04;;;;;;;;;;;18.60;73.30;;;17.87;67.66;96931.41;4290638;33;20154;-82
2022/09/05 01:24:10;;;;;;;;;;;18.60;73.40;;;17.87;67.49;96936.94;4290861;33;20127;-82
2022/09/05 01:27:04;;;;;;;;;;;18.60;73.40;;;17.85;67.75;96934.47;4257899;33;19908;-82
2022/09/05 01:29:38;;;;;;;;;;;18.60;73.50;;;17.86;67.39;96940.84;4248453;33;19920;-82
2022/09/05 01:32:18;;;;;;;;;;;18.60;73.50;;;17.85;67.73;96945.53;4291542;33;20010;-82
2022/09/05 01:35:02;;;;;;;;;;;18.60;73.50;;;17.86;67.76;96949.16;4291175;33;20052;-82
2022/09/05 01:37:36;;;;;;;;;;;18.60;73.40;;;17.86;67.72;96951.91;4266772;33;19999;-82
2022/09/05 01:40:18;;;;;;;;;;;18.60;73.40;;;17.85;67.25;96944.72;4290881;33;20079;-82
2022/09/05 01:43:01;;;;;;;;;;;18.60;73.30;;;17.85;67.59;96950.28;4290266;33;19905;-82
2022/09/05 01:45:45;;;;;;;;;;;18.60;73.40;;;17.85;67.40;96953.03;4290830;33;19901;-82
2022/09/05 01:48:21;;;;;;;;;;;18.60;73.50;;;17.85;67.56;96953.03;4290791;33;19901;-82
2022/09/05 01:50:54;;;;;;;;;;;18.60;73.50;;;17.83;67.52;96950.56;4290368;33;20219;-82
2022/09/05 01:53:32;;;;;;;;;;;18.60;73.50;;;17.83;67.51;96942.25;4266291;33;19901;-82
2022/09/05 01:56:23;;;;;;;;;;;18.60;73.50;;;17.84;67.78;96945.84;4266505;33;19902;-82
2022/09/05 01:59:04;;;;;;;;;;;18.60;73.50;;;17.84;67.57;96940.31;4266462;33;19908;-82
2022/09/05 02:01:41;;;;;;;;;;;18.60;73.50;;;17.83;67.70;96945.00;4290337;33;20098;-82
2022/09/05 02:04:38;;;;;;;;;;;18.60;73.50;;;17.84;67.78;96945.84;4290645;33;19908;-82
2022/09/05 02:07:12;;;;;;;;;;;18.50;73.60;;;17.83;67.54;96941.44;4266244;33;19902;-82
2022/09/05 02:10:17;;;;;;;;;;;18.50;73.60;;;17.83;67.39;96949.75;4289970;33;19908;-82
2022/09/05 02:12:48;;;;;;;;;;;18.50;73.50;;;17.83;67.53;96944.19;4275254;33;19908;-81
2022/09/05 02:15:18;;;;;;;;;;;18.50;73.50;;;17.82;67.76;96953.63;4266281;33;20478;-81
2022/09/05 02:17:51;;;;;;;;;;;18.50;73.60;;;17.82;67.68;96948.09;4291720;33;19905;-81
2022/09/05 02:20:23;;;;;;;;;;;18.50;73.50;;;17.82;67.70;96948.09;4266365;33;19901;-81
2022/09/05 02:22:59;;;;;;;;;;;18.50;73.60;;;17.82;67.62;96948.09;4265837;33;19908;-81
2022/09/05 02:25:30;;;;;;;;;;;18.50;73.60;;;17.81;67.67;96951.97;4290520;33;19901;-81
2022/09/05 02:28:02;;;;;;;;;;;18.50;73.50;;;17.82;67.76;96945.31;4266436;33;19901;-81
2022/09/05 02:30:34;;;;;;;;;;;18.50;73.60;;;17.81;67.79;96943.69;4290544;33;20275;-81
2022/09/05 02:33:14;;;;;;;;;;;18.50;73.60;;;17.80;67.62;96945.63;4265746;33;19909;-82
2022/09/05 02:35:47;;;;;;;;;;;18.50;73.60;;;17.81;67.59;96946.44;4266361;33;20072;-81
2022/09/05 02:38:20;;;;;;;;;;;18.50;73.60;;;17.79;67.67;96939.25;4266188;33;20058;-81
2022/09/05 02:40:54;;;;;;;;;;;18.50;73.60;;;17.79;67.58;96938.44;4266405;33;19902;-82
2022/09/05 02:43:27;;;;;;;;;;;18.50;73.50;;;17.80;67.82;96931.78;4268718;33;20140;-82
2022/09/05 02:45:59;;;;;;;;;;;18.50;73.60;;;17.78;67.53;96926.53;4268619;33;19908;-82
2022/09/05 02:48:35;;;;;;;;;;;18.50;73.60;;;17.78;67.60;96926.53;4268507;33;20078;-81
2022/09/05 02:51:15;;;;;;;;;;;18.50;73.60;;;17.78;67.55;96926.53;4268367;33;20163;-82
2022/09/05 02:53:46;;;;;;;;;;;18.50;73.70;;;17.78;67.85;96926.53;4268660;33;19985;-82
2022/09/05 02:56:40;;;;;;;;;;;18.50;73.60;;;17.78;67.66;96931.25;4292872;33;19909;-81
2022/09/05 02:59:14;;;;;;;;;;;18.50;73.60;;;17.78;67.59;96940.38;4268616;33;20006;-82
2022/09/05 03:02:02;;;;;;;;;;;18.50;73.60;;;17.78;67.58;96953.41;4292273;33;20149;-82
2022/09/05 03:04:37;;;;;;;;;;;18.50;73.70;;;17.75;67.85;96946.50;4268558;33;19929;-82
2022/09/05 03:07:33;;;;;;;;;;;18.50;73.70;;;17.77;67.84;96941.50;4268505;33;19910;-82
2022/09/05 03:10:47;;;;;;;;;;;18.50;73.70;;;17.78;67.92;96945.09;4242929;33;20354;-82
2022/09/05 03:13:58;;;;;;;;;;;18.50;73.70;;;17.78;67.91;96945.91;4248401;33;19901;-82
2022/09/05 03:17:06;;;;;;;;;;;18.50;73.70;;;17.78;67.93;96936.78;4292659;33;19909;-82
2022/09/05 03:19:58;;;;;;;;;;;18.50;73.60;;;17.77;67.90;96935.97;4250906;33;20027;-82
2022/09/05 03:23:25;;;;;;;;;;;18.50;73.70;;;17.77;67.81;96937.91;4292108;33;20231;-83
2022/09/05 03:26:20;;;;;;;;;;;18.50;73.70;;;17.77;67.65;96947.03;4263516;33;19913;-82
2022/09/05 03:30:06;;;;;;;;;;;18.50;73.70;;;17.76;67.75;96945.38;4217820;33;19909;-82
2022/09/05 03:33:21;;;;;;;;;;;18.50;73.70;;;17.75;67.75;96949.28;4287217;33;19901;-83
2022/09/05 03:36:49;;;;;;;;;;;18.50;73.70;;;17.75;67.70;96954.81;4184874;33;19902;-82
2022/09/05 03:40:07;;;;;;;;;;;18.50;73.60;;;17.75;67.95;96952.03;4198442;33;20141;-82
2022/09/05 03:43:05;;;;;;;;;;;18.50;73.60;;;17.75;68.02;96946.50;4262838;33;19909;-82
2022/09/05 03:46:03;;;;;;;;;;;18.50;73.70;;;17.74;67.83;96950.44;4239651;33;19902;-82
2022/09/05 03:48:57;;;;;;;;;;;18.50;73.70;;;17.74;67.86;96950.44;4239528;33;20021;-82
2022/09/05 03:51:31;;;;;;;;;;;18.50;73.70;;;17.75;67.74;96948.47;4239035;33;19901;-82
2022/09/05 03:54:29;;;;;;;;;;;18.50;73.70;;;17.73;67.71;96951.53;4238641;33;19917;-82
2022/09/05 03:57:27;;;;;;;;;;;18.50;74.60;;;17.73;67.77;96948.78;4239391;33;20176;-82
2022/09/05 04:00:09;;;;;;;;;;;18.50;73.70;;;17.74;67.86;96947.66;4263001;33;20213;-83
2022/09/05 04:02:46;;;;;;;;;;;18.50;73.80;;;17.73;68.04;96959.84;4262747;33;19901;-82
2022/09/05 04:05:18;;;;;;;;;;;18.50;73.70;;;17.73;67.77;96962.63;4253369;33;19908;-82
2022/09/05 04:07:47;;;;;;;;;;;18.50;73.70;;;17.75;67.91;96959.53;4292019;33;19909;-82
2022/09/05 04:10:30;;;;;;;;;;;18.40;73.60;;;17.76;67.87;96970.31;4267521;33;19901;-82
2022/09/05 04:13:03;;;;;;;;;;;18.50;73.70;;;17.79;67.58;96966.94;4267258;33;19909;-82
2022/09/05 04:15:38;;;;;;;;;;;18.50;73.50;;;17.81;67.61;96963.06;4267839;33;20134;-82
2022/09/05 04:18:22;;;;;;;;;;;18.50;73.40;;;17.82;67.54;96970.25;4292041;33;19952;-82
2022/09/05 04:20:54;;;;;;;;;;;18.50;73.30;;;17.83;67.46;96969.94;4267273;33;20005;-82
2022/09/05 04:23:29;;;;;;;;;;;18.60;73.20;;;17.86;67.17;96979.63;4291860;33;19901;-82
2022/09/05 04:26:09;;;;;;;;;;;18.60;73.20;;;17.88;67.36;96977.38;4267662;33;20154;-82
2022/09/05 04:29:02;;;;;;;;;;;18.60;73.10;;;17.90;67.24;96986.19;4267542;33;20419;-82
2022/09/05 04:31:42;;;;;;;;;;;18.60;72.90;;;17.92;67.20;96981.19;4267143;33;19979;-82
2022/09/05 04:34:24;;;;;;;;;;;18.70;72.90;;;17.93;67.12;96977.28;4267336;33;19909;-82
2022/09/05 04:37:01;;;;;;;;;;;18.60;72.60;;;17.94;66.84;96979.75;4291650;33;19916;-82
2022/09/05 04:39:31;;;;;;;;;;;18.70;72.70;;;17.97;67.08;96978.38;4267234;33;19938;-82
2022/09/05 04:42:14;;;;;;;;;;;18.70;72.60;;;18.00;66.81;96985.25;4291201;33;20107;-82
2022/09/05 04:44:46;;;;;;;;;;;18.70;72.40;;;18.02;66.72;96975.50;4292570;33;19905;-82
2022/09/05 04:47:18;;;;;;;;;;;18.80;72.30;;;18.07;66.67;96989.31;4262438;33;19902;-82
2022/09/05 04:49:49;;;;;;;;;;;18.80;72.10;;;18.14;66.62;96993.66;4262516;33;20107;-82
2022/09/05 04:52:42;;;;;;;;;;;18.90;72.20;;;18.24;66.37;96990.72;4262239;33;19902;-82
2022/09/05 04:55:11;;;;;;;;;;;19.00;71.90;;;18.40;66.14;97003.19;4262514;33;20088;-83
2022/09/05 04:57:43;;;;;;;;;;;19.30;71.70;;;18.65;65.55;97001.13;4262569;33;19909;-82
2022/09/05 05:00:15;;;;;;;;;;;19.60;70.60;;;18.97;64.89;96996.72;4238483;33;19901;-83
2022/09/05 05:02:46;;;;;;;;;;;20.00;69.30;;;19.37;63.72;97006.53;4237958;33;19909;-83
2022/09/05 05:05:20;;;;;;;;;;;20.50;67.60;;;19.83;62.52;96993.63;4262363;33;20124;-82
2022/09/05 05:07:53;;;;;;;;;;;21.10;65.60;;;20.29;60.84;96997.34;4238491;33;20231;-83
2022/09/05 05:10:28;;;;;;;;;;;21.60;63.60;;;20.68;60.01;96996.66;4262988;33;20048;-82
2022/09/05 05:13:03;;;;;;;;;;;22.00;61.60;;;21.01;58.30;96998.34;4237942;33;19917;-83
2022/09/05 05:15:34;;;;;;;;;;;22.30;60.00;;;21.21;57.09;97004.50;4263194;33;19902;-83
2022/09/05 05:18:07;;;;;;;;;;;22.40;59.10;;;21.28;56.78;97000.13;4238375;33;20105;-83
2022/09/05 05:20:36;;;;;;;;;;;22.40;58.90;;;21.27;56.83;97003.22;4238066;33;20111;-83
2022/09/05 05:23:07;;;;;;;;;;;22.30;59.30;;;21.19;56.89;97009.56;4237896;33;19901;-83
2022/09/05 05:25:45;;;;;;;;;;;22.20;59.80;;;21.04;57.50;97005.25;4262185;33;19908;-83
2022/09/05 05:28:16;;;;;;;;;;;22.00;60.40;;;20.87;58.13;97008.72;4261864;33;19902;-83
2022/09/05 05:30:46;;;;;;;;;;;21.80;61.40;;;20.67;58.94;97013.66;4262822;33;20132;-83
2022/09/05 05:33:26;;;;;;;;;;;21.60;62.30;;;20.49;59.44;97019.09;4262014;33;19902;-83
2022/09/05 05:35:55;;;;;;;;;;;21.50;63.00;;;20.36;59.68;97025.53;4241822;33;19902;-83
2022/09/05 05:38:30;;;;;;;;;;;21.30;63.60;;;20.27;60.53;97021.84;4266843;33;20148;-83
2022/09/05 05:41:04;;;;;;;;;;;21.20;64.10;;;20.20;60.82;97017.53;4266156;33;20088;-83
2022/09/05 05:43:36;;;;;;;;;;;21.20;64.60;;;20.20;60.70;97017.53;4291101;33;20116;-83
2022/09/05 05:46:06;;;;;;;;;;;21.20;64.80;;;20.22;60.38;97018.06;4290672;33;20099;-83
2022/09/05 05:48:38;;;;;;;;;;;21.20;64.90;;;20.26;60.60;97011.88;4290910;33;20038;-83
2022/09/05 05:51:33;;;;;;;;;;;21.20;64.90;;;20.29;60.78;97020.41;4288263;33;19902;-83
2022/09/05 05:54:03;;;;;;;;;;;21.20;64.90;;;20.30;60.74;97015.69;4238081;33;20064;-83
2022/09/05 05:57:03;;;;;;;;;;;21.10;65.00;;;20.28;60.75;97017.94;4262845;33;19909;-83
2022/09/05 06:00:06;;;;;;;;;;;21.10;65.20;;;20.23;60.76;97022.47;4260693;33;19909;-83
2022/09/05 06:03:50;;;;;;;;;;;21.10;65.20;;;20.19;61.02;97027.03;4261341;33;19901;-83
2022/09/05 06:06:27;;;;;;;;;;;21.00;65.30;;;20.15;61.29;97030.72;4237986;33;20256;-83
2022/09/05 06:09:34;;;;;;;;;;;20.90;65.80;;;20.11;61.19;97033.31;4237770;33;19902;-83
2022/09/05 06:13:01;;;;;;;;;;;20.90;66.00;;;20.02;61.77;97033.22;4237510;33;19928;-83
2022/09/05 06:16:34;;;;;;;;;;;20.80;66.10;;;19.97;61.59;97027.81;4237239;33;19905;-83
2022/09/05 06:19:59;;;;;;;;;;;20.80;66.40;;;19.84;62.13;97032.19;4153367;34;20057;-83
2022/09/05 06:23:06;;;;;;;;;;;20.70;66.70;;;19.67;62.55;97038.41;4175995;34;19911;-83
2022/09/05 06:26:14;;;;;;;;;;;20.50;67.10;;;19.52;63.00;97041.47;4237598;33;20076;-83
2022/09/05 06:28:57;;;;;;;;;;;20.40;67.60;;;19.39;63.45;97037.59;4223011;33;20140;-83
2022/09/05 06:31:39;;;;;;;;;;;20.30;68.30;;;19.27;63.92;97041.69;4261030;33;19909;-83
2022/09/05 06:34:22;;;;;;;;;;;20.10;68.80;;;19.18;64.27;97046.28;4261567;33;19901;-83
2022/09/05 06:36:56;;;;;;;;;;;20.00;69.10;;;19.08;64.70;97049.25;4261739;33;20154;-83
2022/09/05 06:39:40;;;;;;;;;;;19.90;69.60;;;19.00;64.84;97043.28;4261477;33;19912;-83
2022/09/05 06:42:20;;;;;;;;;;;19.80;69.90;;;18.94;65.01;97052.81;4285324;33;20141;-84
2022/09/05 06:45:22;;;;;;;;;;;19.70;70.10;;;18.90;65.10;97053.69;4237678;33;20124;-83
2022/09/05 06:47:50;;;;;;;;;;;19.70;70.50;;;18.84;65.35;97062.13;4237719;33;20153;-84
2022/09/05 06:50:20;;;;;;;;;;;19.60;70.60;;;18.80;65.53;97054.69;4261284;33;20114;-84
2022/09/05 06:53:41;;;;;;;;;;;19.60;70.80;;;18.76;65.68;97056.44;4260855;33;20121;-83
2022/09/05 06:56:39;;;;;;;;;;;19.50;71.00;;;18.71;65.77;97063.72;4256293;33;20123;-84
2022/09/05 06:59:45;;;;;;;;;;;19.50;71.30;;;18.69;65.93;97065.16;4285677;33;19952;-84
2022/09/05 07:02:20;;;;;;;;;;;19.40;71.20;;;18.68;65.86;97069.03;4237116;33;20091;-84
2022/09/05 07:05:01;;;;;;;;;;;19.40;71.40;;;18.66;66.18;97069.31;4261406;33;20081;-83
2022/09/05 07:07:35;;;;;;;;;;;19.40;72.30;;;18.66;65.95;97072.09;4261411;33;19902;-83
2022/09/05 07:10:07;;;;;;;;;;;19.40;71.50;;;18.66;66.12;97076.84;4261005;33;19980;-84
2022/09/05 07:12:41;;;;;;;;;;;19.40;71.50;;;18.65;66.05;97073.22;4260908;33;19902;-83
2022/09/05 07:15:13;;;;;;;;;;;19.40;71.70;;;18.65;66.14;97070.44;4285507;33;20062;-84
2022/09/05 07:17:49;;;;;;;;;;;19.40;71.70;;;18.66;65.88;97077.66;4266335;33;19926;-83
2022/09/05 07:20:22;;;;;;;;;;;19.40;71.70;;;18.67;66.11;97073.75;4290150;33;19901;-84
2022/09/05 07:22:56;;;;;;;;;;;19.40;71.60;;;18.71;66.21;97080.34;4265503;33;19901;-84
2022/09/05 07:25:28;;;;;;;;;;;19.40;71.70;;;18.80;66.00;97076.88;4265846;33;20040;-84
2022/09/05 07:27:58;;;;;;;;;;;19.40;71.70;;;18.83;65.51;97077.13;4266431;33;19902;-83
2022/09/05 07:30:27;;;;;;;;;;;19.50;71.50;;;18.87;65.74;97082.88;4268291;33;19908;-84
2022/09/05 07:32:56;;;;;;;;;;;19.50;71.30;;;18.95;65.43;97084.16;4267962;33;20137;-84
2022/09/05 07:35:28;;;;;;;;;;;19.60;71.20;;;19.06;64.94;97084.81;4268260;33;20068;-83
2022/09/05 07:38:03;;;;;;;;;;;19.60;70.90;;;19.12;64.62;97083.59;4292377;33;20129;-83
2022/09/05 07:40:36;;;;;;;;;;;19.70;70.90;;;19.16;64.86;97085.47;4268078;33;19978;-84
2022/09/05 07:43:06;;;;;;;;;;;19.80;70.60;;;19.17;64.45;97087.09;4291900;33;19908;-84
2022/09/05 07:45:36;;;;;;;;;;;19.80;70.30;;;19.22;64.36;97080.63;4292266;33;19908;-84
2022/09/05 07:48:07;;;;;;;;;;;19.80;70.30;;;19.28;64.03;97086.91;4292304;33;19909;-84
2022/09/05 07:50:45;;;;;;;;;;;19.80;70.20;;;19.32;64.00;97083.22;4292453;33;20101;-84
2022/09/05 07:53:14;;;;;;;;;;;19.90;70.00;;;19.37;63.92;97084.25;4293137;33;20071;-84
2022/09/05 07:55:44;;;;;;;;;;;19.90;69.80;;;19.39;64.35;97082.00;4267945;33;19909;-84
2022/09/05 07:58:14;;;;;;;;;;;20.00;69.70;;;19.44;64.21;97090.22;4268092;33;19961;-84
2022/09/05 08:00:42;;;;;;;;;;;20.00;69.60;;;19.45;63.79;97081.59;4293174;33;20091;-84
2022/09/05 08:03:12;;;;;;;;;;;20.00;69.60;;;19.47;64.00;97086.84;4291841;33;19901;-84
2022/09/05 08:05:42;;;;;;;;;;;20.00;69.60;;;19.48;63.56;97088.50;4292252;33;20041;-84
2022/09/05 08:08:13;;;;;;;;;;;20.10;69.50;;;19.49;63.92;97081.81;4293181;33;20159;-84
2022/09/05 08:10:48;;;;;;;;;;;20.10;69.40;;;19.51;63.59;97079.56;4257221;28;19902;-85
2022/09/05 08:13:18;;;;;;;;;;;20.10;69.30;;;19.51;63.67;97074.00;4210783;33;20152;-82
2022/09/05 08:15:49;;;;;;;;;;;20.10;69.40;;;19.50;63.82;97077.91;4234265;33;19910;-83
2022/09/05 08:18:19;;;;;;;;;;;20.10;69.40;;;19.50;63.78;97069.56;4234211;33;20049;-83
2022/09/05 08:20:50;;;;;;;;;;;20.10;69.40;;;19.50;63.71;97072.34;4233695;33;19909;-82
2022/09/05 08:23:34;;;;;;;;;;;20.10;69.40;;;19.51;63.76;97071.22;4234286;33;19925;-84
2022/09/05 08:26:09;;;;;;;;;;;20.10;69.50;;;19.48;63.90;97074.59;4206894;33;19903;-83
2022/09/05 08:28:45;;;;;;;;;;;20.10;69.50;;;19.48;63.83;97069.06;4206086;33;20080;-83
2022/09/05 08:31:18;;;;;;;;;;;20.10;69.50;;;19.47;63.79;97070.19;4228975;33;19903;-83
2022/09/05 08:33:47;;;;;;;;;;;20.10;69.60;;;19.47;64.09;97073.78;4206020;33;20010;-84
2022/09/05 08:36:21;;;;;;;;;;;20.10;69.50;;;19.46;63.86;97076.84;4206057;33;20218;-84
2022/09/05 08:38:49;;;;;;;;;;;20.10;69.50;;;19.45;63.86;97075.22;4205621;33;20117;-84
2022/09/05 08:41:25;;;;;;;;;;;20.10;69.50;;;19.44;63.91;97073.56;4206456;33;19903;-84
2022/09/05 08:44:00;;;;;;;;;;;20.10;69.60;;;19.42;64.12;97075.84;4205947;33;19904;-84
2022/09/05 08:46:31;;;;;;;;;;;20.10;69.60;;;19.43;63.93;97071.91;4182602;33;20007;-84
2022/09/05 08:49:33;;;;;;;;;;;20.10;69.70;;;19.40;64.42;97067.00;4229174;33;19910;-84
2022/09/05 08:52:06;;;;;;;;;;;20.10;69.70;;;19.37;64.12;97062.03;4205304;33;20411;-84
2022/09/05 08:54:37;;;;;;;;;;;20.00;69.70;;;19.35;64.19;97055.97;4205888;33;19909;-84
2022/09/05 08:57:14;;;;;;;;;;;20.00;69.70;;;19.32;64.53;97063.78;4205777;33;19910;-84
2022/09/05 08:59:44;;;;;;;;;;;20.00;70.70;;;19.29;64.47;97053.31;4182508;33;20045;-84
2022/09/05 09:03:04;;;;;;;;;;;20.00;70.00;;;19.26;64.84;97050.31;4205120;33;19957;-84
2022/09/05 09:06:13;;;;;;;;;;;20.00;70.00;;;19.22;64.83;97052.88;4192162;33;19903;-84
2022/09/05 09:08:54;;;;;;;;;;;19.90;70.10;;;19.16;64.95;97057.69;4205380;33;19987;-84
2022/09/05 09:11:29;;;;;;;;;;;19.90;70.30;;;19.12;64.73;97053.88;4181722;33;19975;-85
2022/09/05 09:14:52;;;;;;;;;;;19.80;70.30;;;19.10;64.81;97055.31;4182363;33;20094;-84
2022/09/05 09:17:27;;;;;;;;;;;19.80;70.40;;;19.09;64.92;97053.66;4137139;33;19953;-84
2022/09/05 09:20:14;;;;;;;;;;;19.80;70.40;;;19.08;65.19;97049.25;4205350;33;20142;-84
2022/09/05 09:22:51;;;;;;;;;;;19.80;70.60;;;19.10;65.06;97047.84;4181561;33;19906;-84
2022/09/05 09:25:22;;;;;;;;;;;19.80;70.60;;;19.11;65.26;97045.88;4205278;33;19903;-85
2022/09/05 09:28:41;;;;;;;;;;;19.80;70.80;;;19.09;65.25;97045.34;4206363;33;20330;-84
2022/09/05 09:31:21;;;;;;;;;;;19.80;70.70;;;19.05;65.19;97045.13;4198155;33;19914;-84
2022/09/05 09:33:57;;;;;;;;;;;19.80;70.80;;;18.99;65.39;97036.09;4205265;33;19922;-85
2022/09/05 09:36:44;;;;;;;;;;;19.80;70.80;;;18.98;65.34;97040.00;4205286;33;19902;-85
2022/09/05 09:39:22;;;;;;;;;;;19.70;70.90;;;18.95;65.45;97037.81;4205201;33;20237;-85
2022/09/05 09:42:10;;;;;;;;;;;19.70;70.90;;;18.93;65.41;97034.47;4204767;33;20053;-85
2022/09/05 09:45:16;;;;;;;;;;;19.70;71.00;;;18.92;65.63;97035.59;4205191;33;19903;-85
2022/09/05 09:48:44;;;;;;;;;;;19.60;70.90;;;18.91;65.77;97036.72;4181861;33;19903;-85
2022/09/05 09:51:48;;;;;;;;;;;19.60;70.90;;;18.89;65.50;97039.00;4110098;33;19910;-84
2022/09/05 09:55:16;;;;;;;;;;;19.60;71.10;;;18.89;65.69;97025.16;4168924;33;20432;-83
2022/09/05 09:58:49;;;;;;;;;;;19.60;71.00;;;18.91;65.34;97022.88;4115025;33;19902;-83
2022/09/05 10:01:25;;;;;;;;;;;19.60;70.90;;;18.93;65.56;97019.81;4149043;33;19903;-83
2022/09/05 10:04:23;;;;;;;;;;;19.60;70.90;;;18.93;65.20;97020.59;4228371;33;20152;-84
2022/09/05 10:07:36;;;;;;;;;;;19.60;70.80;;;18.94;65.30;97013.97;4201109;33;20307;-84
2022/09/05 10:10:40;;;;;;;;;;;19.70;70.80;;;18.93;65.34;97017.03;4181480;33;19956;-83
2022/09/05 10:13:23;;;;;;;;;;;19.70;70.90;;;18.92;65.63;97012.59;4204475;33;19910;-84
2022/09/05 10:16:38;;;;;;;;;;;19.60;70.70;;;18.89;65.58;97013.22;4181757;33;19975;-84
2022/09/05 10:19:31;;;;;;;;;;;19.60;70.80;;;18.87;65.30;97013.53;4220937;33;19910;-85
2022/09/05 10:22:20;;;;;;;;;;;19.60;70.80;;;18.85;65.48;97007.44;4232546;33;20043;-85
2022/09/05 10:25:05;;;;;;;;;;;19.60;71.00;;;18.82;65.49;97013.59;4232796;33;20048;-85
2022/09/05 10:28:06;;;;;;;;;;;19.60;71.00;;;18.79;65.99;97014.19;4232876;33;19909;-84
2022/09/05 10:30:46;;;;;;;;;;;19.50;71.10;;;18.77;65.67;97010.94;4229774;33;19903;-85
2022/09/05 10:33:28;;;;;;;;;;;19.50;71.20;;;18.74;65.91;97000.44;4209155;33;19979;-84
2022/09/05 10:36:02;;;;;;;;;;;19.50;71.30;;;18.74;65.67;97006.78;4233876;33;19909;-83
2022/09/05 10:38:39;;;;;;;;;;;19.50;71.40;;;18.74;65.96;97001.25;4233787;33;20112;-84
2022/09/05 10:41:09;;;;;;;;;;;19.50;71.40;;;18.75;65.89;96999.31;4208882;33;20281;-84
2022/09/05 10:43:48;;;;;;;;;;;19.50;71.40;;;18.77;65.64;96999.84;4233653;33;20076;-83
2022/09/05 10:46:36;;;;;;;;;;;19.50;71.30;;;18.77;65.58;96991.53;4209565;33;20087;-83
2022/09/05 10:49:07;;;;;;;;;;;19.50;71.30;;;18.79;65.86;96986.47;4209375;33;20236;-84
2022/09/05 10:51:41;;;;;;;;;;;19.50;71.20;;;18.80;65.72;96988.09;4232092;33;19902;-84
2022/09/05 10:54:27;;;;;;;;;;;19.50;71.10;;;18.80;65.59;96982.56;4232740;33;20133;-84
2022/09/05 10:57:01;;;;;;;;;;;19.50;71.10;;;18.78;65.72;96984.84;4232583;33;20125;-83
2022/09/05 10:59:31;;;;;;;;;;;19.50;71.10;;;18.76;65.83;96987.09;4209251;33;20456;-83
2022/09/05 11:02:05;;;;;;;;;;;19.50;71.10;;;18.74;65.57;96978.25;4209307;33;20236;-84
2022/09/05 11:04:45;;;;;;;;;;;19.50;71.20;;;18.74;65.55;96983.81;4236020;33;19902;-83
2022/09/05 11:07:15;;;;;;;;;;;19.50;71.20;;;18.73;65.79;96982.97;4211590;33;20114;-83
2022/09/05 11:10:01;;;;;;;;;;;19.50;71.20;;;18.74;65.71;96978.25;4234895;33;20111;-83
2022/09/05 11:12:39;;;;;;;;;;;19.50;71.30;;;18.74;65.76;96981.03;4234649;33;19909;-84
2022/09/05 11:15:13;;;;;;;;;;;19.40;71.10;;;18.73;65.84;96984.94;4258835;33;19910;-83
2022/09/05 11:17:43;;;;;;;;;;;19.50;71.40;;;18.74;65.45;96981.84;4235000;33;19902;-84
2022/09/05 11:20:57;;;;;;;;;;;19.50;71.20;;;18.75;65.99;96974.34;4211342;33;20009;-83
2022/09/05 11:23:31;;;;;;;;;;;19.50;71.20;;;18.74;65.63;96981.03;4184102;33;20210;-83
2022/09/05 11:26:03;;;;;;;;;;;19.50;71.20;;;18.74;65.87;96967.16;4234964;33;19925;-84
2022/09/05 11:28:37;;;;;;;;;;;19.50;71.30;;;18.71;65.64;96969.41;4211350;33;20392;-83
2022/09/05 11:31:09;;;;;;;;;;;19.50;71.30;;;18.69;65.71;96973.63;4210751;33;19917;-84
2022/09/05 11:34:07;;;;;;;;;;;19.40;71.20;;;18.71;65.79;96974.97;4211372;33;19902;-83
2022/09/05 11:36:38;;;;;;;;;;;19.40;71.20;;;18.69;65.78;96966.09;4211274;33;20340;-83
2022/09/05 11:39:12;;;;;;;;;;;19.40;71.20;;;18.68;65.63;96970.00;4211220;33;20141;-83
2022/09/05 11:42:22;;;;;;;;;;;19.40;71.20;;;18.68;65.75;96972.78;4234228;33;20095;-84
2022/09/05 11:45:06;;;;;;;;;;;19.40;71.30;;;18.68;65.81;96963.66;4258581;33;19903;-84
2022/09/05 11:48:26;;;;;;;;;;;19.40;71.30;;;18.68;65.96;96964.47;4211295;33;19902;-84
2022/09/05 11:51:08;;;;;;;;;;;19.40;71.30;;;18.67;65.83;96957.28;4189024;33;20233;-84
2022/09/05 11:54:13;;;;;;;;;;;19.40;71.30;;;18.66;65.84;96955.63;4234434;33;20358;-84
2022/09/05 11:57:12;;;;;;;;;;;19.40;71.40;;;18.65;65.77;96959.53;4234627;33;20030;-83
2022/09/05 12:00:09;;;;;;;;;;;19.40;71.40;;;18.64;66.00;96952.34;4183034;33;19988;-84
2022/09/05 12:03:13;;;;;;;;;;;19.40;71.40;;;18.65;65.77;96958.72;4206039;33;19903;-84
2022/09/05 12:06:17;;;;;;;;;;;19.40;71.40;;;18.64;65.52;96952.34;4180170;33;19902;-84
2022/09/05 12:08:51;;;;;;;;;;;19.40;71.40;;;18.64;66.05;96955.13;4206294;33;20026;-84
2022/09/05 12:11:31;;;;;;;;;;;19.40;71.50;;;18.63;66.14;96950.72;4205655;33;19906;-83
2022/09/05 12:14:06;;;;;;;;;;;19.40;71.50;;;18.63;66.12;96956.25;4182469;33;20119;-83
2022/09/05 12:16:56;;;;;;;;;;;19.40;71.50;;;18.63;65.68;96953.47;4206311;33;20222;-84
2022/09/05 12:19:33;;;;;;;;;;;19.40;71.50;;;18.64;65.94;96957.91;4182936;33;19910;-84
2022/09/05 12:22:28;;;;;;;;;;;19.40;71.40;;;18.65;65.92;96945.66;4205720;33;19990;-83
2022/09/05 12:25:27;;;;;;;;;;;19.40;71.50;;;18.66;65.98;96938.16;4195007;33;19902;-84
2022/09/05 12:27:58;;;;;;;;;;;19.40;71.40;;;18.66;65.84;96938.97;4182955;33;20286;-83
2022/09/05 12:30:30;;;;;;;;;;;19.40;71.40;;;18.67;65.73;96940.63;4205888;33;19903;-84